createdAt,value
2022-11-03T00:01:12.264Z,11.43
2022-11-03T00:17:24.661Z,11.64
2022-11-03T00:19:51.142Z,11.62
2022-11-03T00:22:17.430Z,11.64
2022-11-03T00:24:43.746Z,11.62
2022-11-03T00:27:10.141Z,11.66
2022-11-03T00:29:36.541Z,11.67
2022-11-03T00:32:02.861Z,11.74
2022-11-03T00:34:29.131Z,11.78
2022-11-03T00:36:55.569Z,11.79
2022-11-03T00:39:22.029Z,11.80
2022-11-03T00:41:48.491Z,11.78
2022-11-03T00:44:14.855Z,11.78
2022-11-03T00:46:41.301Z,11.78
2022-11-03T00:49:07.563Z,11.77
2022-11-03T00:51:37.106Z,11.76
2022-11-03T00:54:04.340Z,11.80
2022-11-03T00:56:35.302Z,11.83
2022-11-03T00:59:02.208Z,11.81
2022-11-03T01:01:31.335Z,11.80
2022-11-03T01:04:17.186Z,11.81
2022-11-03T01:06:51.233Z,11.81
2022-11-03T01:09:17.630Z,11.85
2022-11-03T01:11:50.205Z,11.87
2022-11-03T01:14:17.137Z,11.85
2022-11-03T01:16:43.615Z,11.82
2022-11-03T01:19:10.239Z,11.82
2022-11-03T01:21:36.675Z,11.85
2022-11-03T01:24:03.815Z,11.81
2022-11-03T01:26:30.851Z,11.79
2022-11-03T01:28:58.720Z,11.86
2022-11-03T01:31:25.409Z,11.86
2022-11-03T01:33:52.645Z,11.88
2022-11-03T01:36:19.484Z,11.88
2022-11-03T01:38:46.046Z,11.86
2022-11-03T01:41:14.521Z,11.88
2022-11-03T01:43:41.479Z,11.85
2022-11-03T01:46:13.599Z,11.86
2022-11-03T01:48:42.871Z,11.81
2022-11-03T01:51:11.073Z,11.82
2022-11-03T01:53:42.399Z,11.79
2022-11-03T01:56:10.399Z,11.81
2022-11-03T01:58:39.290Z,11.81
2022-11-03T02:01:05.687Z,11.80
2022-11-03T02:03:35.295Z,11.82
2022-11-03T02:06:02.756Z,11.85
2022-11-03T02:08:32.173Z,11.81
2022-11-03T02:10:58.653Z,11.83
2022-11-03T02:13:26.348Z,11.82
2022-11-03T02:15:54.562Z,11.81
2022-11-03T02:18:24.299Z,11.82
2022-11-03T02:20:55.283Z,11.80
2022-11-03T02:23:26.538Z,11.77
2022-11-03T02:25:54.141Z,11.75
2022-11-03T02:28:25.370Z,11.71
2022-11-03T02:30:58.254Z,11.71
2022-11-03T02:33:30.965Z,11.62
2022-11-03T02:36:15.975Z,11.62
2022-11-03T02:38:48.009Z,11.62
2022-11-03T02:41:16.094Z,11.59
2022-11-03T02:43:43.648Z,11.54
2022-11-03T02:46:12.209Z,11.58
2022-11-03T02:48:38.594Z,11.59
2022-11-03T02:51:05.126Z,11.64
2022-11-03T02:53:35.078Z,11.64
2022-11-03T02:56:03.600Z,11.67
2022-11-03T02:59:05.254Z,11.65
2022-11-03T03:01:46.738Z,11.62
2022-11-03T03:04:26.941Z,11.63
2022-11-03T03:06:57.263Z,11.66
2022-11-03T03:09:29.327Z,11.69
2022-11-03T03:11:58.699Z,11.60
2022-11-03T03:14:28.785Z,11.62
2022-11-03T03:17:04.882Z,11.63
2022-11-03T03:19:43.511Z,11.62
2022-11-03T03:22:16.834Z,11.60
2022-11-03T03:25:06.495Z,11.60
2022-11-03T03:27:34.258Z,11.65
2022-11-03T03:30:05.400Z,11.60
2022-11-03T03:32:34.072Z,11.60
2022-11-03T03:35:02.998Z,11.65
2022-11-03T03:37:30.800Z,11.67
2022-11-03T03:40:00.409Z,11.66
2022-11-03T03:42:28.731Z,11.62
2022-11-03T03:44:55.816Z,11.61
2022-11-03T03:47:25.345Z,11.55
2022-11-03T03:49:51.783Z,11.56
2022-11-03T03:52:18.731Z,11.59
2022-11-03T03:54:45.242Z,11.58
2022-11-03T03:57:15.710Z,11.62
2022-11-03T03:59:42.839Z,11.60
2022-11-03T04:02:09.342Z,11.59
2022-11-03T04:04:35.763Z,11.56
2022-11-03T04:07:20.850Z,11.54
2022-11-03T04:09:47.133Z,11.57
2022-11-03T04:12:32.466Z,11.51
2022-11-03T04:15:17.158Z,11.52
2022-11-03T04:18:03.200Z,11.54
2022-11-03T04:20:48.429Z,11.56
2022-11-03T04:23:14.728Z,11.52
2022-11-03T04:25:42.400Z,11.49
2022-11-03T04:28:12.853Z,11.51
2022-11-03T04:30:39.151Z,11.51
2022-11-03T04:33:12.323Z,11.51
2022-11-03T04:35:38.615Z,11.49
2022-11-03T04:38:09.833Z,11.49
2022-11-03T04:40:36.229Z,11.46
2022-11-03T04:43:04.725Z,11.42
2022-11-03T04:45:33.950Z,11.44
2022-11-03T04:48:01.801Z,11.46
2022-11-03T04:50:28.119Z,11.47
2022-11-03T04:52:55.368Z,11.47
2022-11-03T04:55:21.747Z,11.51
2022-11-03T04:57:48.177Z,11.56
2022-11-03T05:00:18.671Z,11.59
2022-11-03T05:02:48.056Z,11.61
2022-11-03T05:05:17.631Z,11.60
2022-11-03T05:07:43.997Z,11.58
2022-11-03T05:10:12.928Z,11.60
2022-11-03T05:12:39.200Z,11.60
2022-11-03T05:15:08.461Z,11.61
2022-11-03T05:17:36.992Z,11.62
2022-11-03T05:20:03.732Z,11.63
2022-11-03T05:22:33.743Z,11.66
2022-11-03T05:25:22.335Z,11.67
2022-11-03T05:27:48.598Z,11.71
2022-11-03T05:30:15.018Z,11.71
2022-11-03T05:32:42.154Z,11.75
2022-11-03T05:35:21.436Z,11.74
2022-11-03T05:37:47.901Z,11.75
2022-11-03T05:40:24.850Z,11.77
2022-11-03T05:42:58.767Z,11.78
2022-11-03T05:45:34.847Z,11.80
2022-11-03T05:48:02.164Z,11.83
2022-11-03T05:50:29.595Z,11.82
2022-11-03T05:53:02.050Z,11.83
2022-11-03T05:55:33.142Z,11.87
2022-11-03T05:58:00.992Z,11.87
2022-11-03T06:00:28.755Z,11.86
2022-11-03T06:02:55.777Z,11.90
2022-11-03T06:05:23.093Z,11.89
2022-11-03T06:07:49.901Z,11.90
2022-11-03T06:10:27.280Z,11.92
2022-11-03T06:12:55.891Z,11.94
2022-11-03T06:15:27.123Z,11.96
2022-11-03T06:17:53.674Z,11.99
2022-11-03T06:20:21.287Z,11.99
2022-11-03T06:22:49.325Z,12.01
2022-11-03T06:25:18.719Z,12.02
2022-11-03T06:27:45.045Z,12.04
2022-11-03T06:30:24.787Z,12.04
2022-11-03T06:32:51.184Z,12.03
2022-11-03T06:35:17.841Z,11.98
2022-11-03T06:37:44.856Z,11.94
2022-11-03T06:40:11.145Z,11.94
2022-11-03T06:42:40.911Z,11.95
2022-11-03T06:45:25.913Z,11.94
2022-11-03T06:47:53.121Z,11.96
2022-11-03T06:50:19.485Z,11.95
2022-11-03T06:55:21.418Z,11.92
2022-11-03T06:57:48.191Z,11.91
2022-11-03T07:00:35.542Z,11.93
2022-11-03T07:03:08.236Z,11.93
2022-11-03T07:05:35.362Z,11.96
2022-11-03T07:08:14.314Z,11.92
2022-11-03T07:10:40.601Z,11.91
2022-11-03T07:13:14.756Z,11.91
2022-11-03T07:15:42.033Z,11.88
2022-11-03T07:18:22.778Z,11.88
2022-11-03T07:20:49.275Z,11.90
2022-11-03T07:23:19.005Z,11.87
2022-11-03T07:25:56.595Z,11.95
2022-11-03T07:28:26.526Z,12.02
2022-11-03T07:30:52.855Z,12.09
2022-11-03T07:33:26.550Z,12.16
2022-11-03T07:36:14.548Z,12.22
2022-11-03T07:38:42.572Z,12.29
2022-11-03T07:41:12.431Z,12.33
2022-11-03T07:43:38.848Z,12.38
2022-11-03T07:46:05.817Z,12.44
2022-11-03T07:48:41.839Z,12.53
2022-11-03T07:51:46.869Z,12.65
2022-11-03T07:54:16.434Z,12.76
2022-11-03T07:56:45.325Z,12.87
2022-11-03T07:59:15.711Z,12.93
2022-11-03T08:01:52.074Z,12.98
2022-11-03T08:04:20.341Z,13.04
2022-11-03T08:06:47.082Z,13.05
2022-11-03T08:09:13.527Z,13.11
2022-11-03T08:11:39.939Z,13.13
2022-11-03T08:14:06.240Z,13.21
2022-11-03T08:16:32.529Z,13.23
2022-11-03T08:18:58.895Z,13.24
2022-11-03T08:21:25.304Z,13.24
2022-11-03T08:23:52.315Z,13.28
2022-11-03T08:26:18.890Z,13.34
2022-11-03T08:28:45.424Z,13.38
2022-11-03T08:31:13.116Z,13.45
2022-11-03T08:33:39.693Z,13.52
2022-11-03T08:36:06.291Z,13.71
2022-11-03T08:38:32.624Z,13.72
2022-11-03T08:40:58.980Z,13.76
2022-11-03T08:43:25.361Z,13.89
2022-11-03T08:45:54.690Z,13.91
2022-11-03T08:48:27.100Z,13.97
2022-11-03T08:50:57.008Z,14.00
2022-11-03T08:53:24.539Z,14.00
2022-11-03T08:55:50.872Z,14.01
2022-11-03T08:58:17.219Z,14.05
2022-11-03T09:00:43.544Z,14.19
2022-11-03T09:03:09.976Z,14.29
2022-11-03T09:05:36.575Z,14.37
2022-11-03T09:10:49.768Z,14.44
2022-11-03T09:13:16.152Z,14.43
2022-11-03T09:15:42.537Z,14.47
2022-11-03T09:18:09.238Z,14.49
2022-11-03T09:20:35.866Z,14.52
2022-11-03T09:23:02.421Z,14.50
2022-11-03T09:25:28.938Z,14.50
2022-11-03T09:27:58.218Z,14.51
2022-11-03T09:30:24.631Z,14.56
2022-11-03T09:32:51.324Z,14.54
2022-11-03T09:35:17.763Z,14.55
2022-11-03T09:37:44.152Z,14.57
2022-11-03T09:40:11.557Z,14.66
2022-11-03T09:42:38.844Z,14.64
2022-11-03T09:45:07.675Z,14.66
2022-11-03T09:47:35.929Z,14.64
2022-11-03T09:50:02.806Z,14.63
2022-11-03T09:52:29.292Z,14.84
2022-11-03T09:54:55.815Z,14.86
2022-11-03T09:57:22.670Z,14.64
2022-11-03T09:59:50.502Z,14.53
2022-11-03T10:02:22.950Z,14.46
2022-11-03T10:04:50.936Z,14.40
2022-11-03T10:07:17.337Z,14.36
2022-11-03T10:09:48.583Z,14.37
2022-11-03T10:12:14.979Z,14.40
2022-11-03T10:14:42.739Z,14.42
2022-11-03T10:17:15.177Z,14.42
2022-11-03T10:19:41.485Z,14.50
2022-11-03T10:22:07.906Z,14.49
2022-11-03T10:24:34.244Z,14.50
2022-11-03T10:27:00.575Z,14.51
2022-11-03T10:29:27.751Z,14.53
2022-11-03T10:31:55.402Z,14.60
2022-11-03T10:34:25.931Z,14.64
2022-11-03T10:37:12.161Z,14.68
2022-11-03T10:39:38.833Z,14.64
2022-11-03T10:42:05.161Z,14.59
2022-11-03T10:44:31.606Z,14.57
2022-11-03T10:46:59.561Z,14.56
2022-11-03T10:49:27.185Z,14.55
2022-11-03T10:51:54.578Z,14.56
2022-11-03T10:54:24.579Z,14.56
2022-11-03T10:56:52.247Z,14.53
2022-11-03T10:59:24.248Z,14.48
2022-11-03T11:01:51.140Z,14.47
2022-11-03T11:04:18.715Z,14.44
2022-11-03T11:06:46.208Z,14.40
2022-11-03T11:09:14.082Z,14.43
2022-11-03T11:11:57.926Z,14.43
2022-11-03T11:14:28.037Z,14.49
2022-11-03T11:16:55.583Z,14.51
2022-11-03T11:19:22.889Z,14.51
2022-11-03T11:21:57.157Z,14.52
2022-11-03T11:24:42.354Z,14.54
2022-11-03T11:27:27.584Z,14.56
2022-11-03T11:29:54.393Z,14.59
2022-11-03T11:32:39.068Z,14.58
2022-11-03T11:35:09.990Z,14.57
2022-11-03T11:37:37.084Z,14.59
2022-11-03T11:40:11.401Z,14.57
2022-11-03T11:42:57.839Z,14.56
2022-11-03T11:45:43.044Z,14.56
2022-11-03T11:48:18.958Z,14.55
2022-11-03T11:50:46.152Z,14.55
2022-11-03T11:53:13.943Z,14.61
2022-11-03T11:55:52.489Z,14.62
2022-11-03T11:58:31.488Z,14.58
2022-11-03T12:01:02.273Z,14.54
2022-11-03T12:03:30.911Z,14.46
2022-11-03T12:05:57.259Z,14.42
2022-11-03T12:08:31.152Z,14.35
2022-11-03T12:10:59.092Z,14.37
2022-11-03T12:13:43.849Z,14.32
2022-11-03T12:16:29.012Z,14.38
2022-11-03T12:18:55.436Z,14.40
2022-11-03T12:21:40.548Z,14.42
2022-11-03T12:24:45.432Z,14.46
2022-11-03T12:27:20.615Z,14.50
2022-11-03T12:29:47.044Z,14.50
2022-11-03T12:32:32.408Z,14.47
2022-11-03T12:34:59.996Z,14.48
2022-11-03T12:37:26.356Z,14.51
2022-11-03T12:39:52.764Z,14.55
2022-11-03T12:42:20.104Z,14.56
2022-11-03T12:44:46.651Z,14.55
2022-11-03T12:47:13.105Z,14.54
2022-11-03T12:49:39.383Z,14.45
2022-11-03T12:52:08.303Z,14.40
2022-11-03T12:54:34.914Z,14.42
2022-11-03T12:57:01.268Z,14.40
2022-11-03T12:59:27.561Z,14.39
2022-11-03T13:01:54.213Z,14.41
2022-11-03T13:04:21.047Z,14.42
2022-11-03T13:06:47.355Z,14.42
2022-11-03T13:09:13.678Z,14.41
2022-11-03T13:11:58.765Z,14.43
2022-11-03T13:14:26.500Z,14.43
2022-11-03T13:16:52.847Z,14.46
2022-11-03T13:19:19.223Z,14.46
2022-11-03T13:21:45.711Z,14.47
2022-11-03T13:24:12.102Z,14.50
2022-11-03T13:26:38.444Z,14.53
2022-11-03T13:29:04.752Z,14.48
2022-11-03T13:31:31.410Z,14.48
2022-11-03T13:33:57.739Z,14.46
2022-11-03T13:36:24.199Z,14.48
2022-11-03T13:38:50.890Z,14.46
2022-11-03T13:41:17.181Z,14.52
2022-11-03T13:43:43.488Z,14.52
2022-11-03T13:46:09.772Z,14.51
2022-11-03T13:51:22.561Z,14.41
2022-11-03T13:59:24.832Z,14.28
2022-11-03T14:07:07.018Z,14.25
2022-11-03T14:09:33.542Z,14.27
2022-11-03T14:12:18.679Z,14.30
2022-11-03T14:14:45.301Z,14.32
2022-11-03T14:17:12.280Z,14.30
2022-11-03T14:19:44.858Z,14.32
2022-11-03T14:22:13.843Z,14.25
2022-11-03T14:24:40.364Z,14.27
2022-11-03T14:27:06.969Z,14.29
2022-11-03T14:29:33.588Z,14.25
2022-11-03T14:31:59.955Z,14.21
2022-11-03T14:34:26.402Z,14.18
2022-11-03T14:36:52.868Z,14.11
2022-11-03T14:39:19.187Z,14.11
2022-11-03T14:42:03.838Z,14.08
2022-11-03T14:44:38.150Z,14.06
2022-11-03T14:47:06.572Z,14.07
2022-11-03T14:49:34.102Z,14.05
2022-11-03T14:52:01.934Z,14.02
2022-11-03T14:54:28.865Z,13.97
2022-11-03T14:56:55.445Z,13.98
2022-11-03T14:59:21.983Z,13.96
2022-11-03T15:01:49.393Z,13.97
2022-11-03T15:04:15.887Z,13.94
2022-11-03T15:06:42.300Z,13.91
2022-11-03T15:11:41.108Z,13.76
2022-11-03T15:14:07.536Z,13.75
2022-11-03T15:16:36.055Z,13.67
2022-11-03T15:19:05.834Z,13.68
2022-11-03T15:21:32.410Z,13.60
2022-11-03T15:26:45.274Z,13.55
2022-11-03T15:29:11.614Z,13.56
2022-11-03T15:31:39.172Z,13.52
2022-11-03T15:34:08.801Z,13.49
2022-11-03T15:36:35.435Z,13.47
2022-11-03T15:39:02.255Z,13.46
2022-11-03T15:41:28.656Z,13.40
2022-11-03T15:43:54.982Z,13.41
2022-11-03T15:46:21.296Z,13.34
2022-11-03T15:48:49.111Z,13.35
2022-11-03T15:51:15.584Z,13.36
2022-11-03T15:53:42.041Z,13.38
2022-11-03T15:56:08.555Z,13.36
2022-11-03T15:58:35.016Z,13.33
2022-11-03T16:01:05.148Z,13.36
2022-11-03T16:03:32.422Z,13.36
2022-11-03T16:05:59.087Z,13.35
2022-11-03T16:08:25.540Z,13.37
2022-11-03T16:10:56.455Z,13.41
2022-11-03T16:13:24.754Z,13.42
2022-11-03T16:15:51.401Z,13.43
2022-11-03T16:18:17.808Z,13.43
2022-11-03T16:20:44.168Z,13.49
2022-11-03T16:23:10.584Z,13.50
2022-11-03T16:25:36.984Z,13.54
2022-11-03T16:28:03.357Z,13.55
2022-11-03T16:30:29.813Z,13.55
2022-11-03T16:32:56.122Z,13.59
2022-11-03T16:35:22.499Z,13.57
2022-11-03T16:37:49.601Z,13.61
2022-11-03T16:40:19.357Z,13.67
2022-11-03T16:42:46.315Z,13.70
2022-11-03T16:45:18.301Z,13.71
2022-11-03T16:47:45.361Z,13.73
2022-11-03T16:50:11.675Z,13.73
2022-11-03T16:52:38.083Z,13.73
2022-11-03T16:55:04.964Z,13.73
2022-11-03T16:57:31.434Z,13.73
2022-11-03T16:59:57.923Z,13.69
2022-11-03T17:02:24.752Z,13.70
2022-11-03T17:04:51.283Z,13.70
2022-11-03T17:07:17.565Z,13.67
2022-11-03T17:09:43.932Z,13.70
2022-11-03T17:12:10.348Z,13.72
2022-11-03T17:14:36.771Z,13.73
2022-11-03T17:17:03.088Z,13.78
2022-11-03T17:19:29.471Z,13.80
2022-11-03T17:21:55.820Z,13.82
2022-11-03T17:24:22.147Z,13.81
2022-11-03T17:26:51.361Z,13.79
2022-11-03T17:29:19.136Z,13.75
2022-11-03T17:31:45.484Z,13.75
2022-11-03T17:34:11.918Z,13.72
2022-11-03T17:36:38.400Z,13.71
2022-11-03T17:39:04.711Z,13.66
2022-11-03T17:41:31.084Z,13.66
2022-11-03T17:43:57.563Z,13.66
2022-11-03T17:46:24.010Z,13.64
2022-11-03T17:48:50.463Z,13.65
2022-11-03T17:51:16.811Z,13.63
2022-11-03T17:53:43.201Z,13.66
2022-11-03T17:56:31.350Z,13.62
2022-11-03T17:58:58.041Z,13.68
2022-11-03T18:01:25.775Z,13.69
2022-11-03T18:03:52.674Z,13.65
2022-11-03T18:06:20.394Z,13.69
2022-11-03T18:08:47.412Z,13.72
2022-11-03T18:11:35.012Z,13.74
2022-11-03T18:14:02.536Z,13.78
2022-11-03T18:16:30.455Z,13.82
2022-11-03T18:18:56.976Z,13.83
2022-11-03T18:21:23.758Z,13.84
2022-11-03T18:23:50.291Z,13.85
2022-11-03T18:26:18.030Z,13.85
2022-11-03T18:28:44.519Z,13.86
2022-11-03T18:31:15.279Z,13.85
2022-11-03T18:33:41.661Z,13.86
2022-11-03T18:36:10.031Z,13.85
2022-11-03T18:38:37.141Z,13.85
2022-11-03T18:41:23.444Z,13.82
2022-11-03T18:43:49.841Z,13.68
2022-11-03T18:46:16.248Z,13.80
2022-11-03T18:48:42.560Z,13.79
2022-11-03T18:51:08.864Z,13.77
2022-11-03T18:53:35.205Z,13.76
2022-11-03T18:56:01.553Z,13.73
2022-11-03T18:58:27.848Z,13.73
2022-11-03T19:00:54.217Z,13.74
2022-11-03T19:03:22.022Z,13.71
2022-11-03T19:05:50.262Z,13.67
2022-11-03T19:08:25.612Z,13.71
2022-11-03T19:10:52.658Z,13.70
2022-11-03T19:13:25.030Z,13.70
2022-11-03T19:15:51.602Z,13.68
2022-11-03T19:18:17.907Z,13.67
2022-11-03T19:20:44.241Z,13.66
2022-11-03T19:23:10.766Z,13.65
2022-11-03T19:25:38.358Z,13.66
2022-11-03T19:28:05.354Z,13.63
2022-11-03T19:30:31.822Z,13.60
2022-11-03T19:32:58.197Z,13.60
2022-11-03T19:35:35.009Z,13.60
2022-11-03T19:38:03.861Z,13.56
2022-11-03T19:40:30.222Z,13.49
2022-11-03T19:42:56.963Z,13.48
2022-11-03T19:45:24.099Z,13.44
2022-11-03T19:50:43.127Z,13.43
2022-11-03T19:53:13.712Z,13.42
2022-11-03T19:55:41.947Z,13.40
2022-11-03T19:58:13.529Z,13.38
2022-11-03T20:00:40.867Z,13.42
2022-11-03T20:03:07.288Z,13.41
2022-11-03T20:05:33.694Z,13.42
2022-11-03T20:08:00.974Z,13.44
2022-11-03T20:10:30.398Z,13.35
2022-11-03T20:13:00.403Z,13.34
2022-11-03T20:15:26.769Z,13.29
2022-11-03T20:17:53.271Z,13.30
2022-11-03T20:20:21.231Z,13.34
2022-11-03T20:22:52.259Z,13.36
2022-11-03T20:25:20.823Z,13.35
2022-11-03T20:27:47.327Z,13.31
2022-11-03T20:30:15.193Z,13.33
2022-11-03T20:32:41.589Z,13.30
2022-11-03T20:35:09.608Z,13.25
2022-11-03T20:37:35.974Z,13.23
2022-11-03T20:40:02.560Z,13.27
2022-11-03T20:42:28.942Z,13.27
2022-11-03T20:44:55.318Z,13.27
2022-11-03T20:47:21.645Z,13.24
2022-11-03T20:49:48.401Z,13.28
2022-11-03T20:52:15.283Z,13.26
2022-11-03T20:54:43.056Z,13.25
2022-11-03T20:57:11.573Z,13.21
2022-11-03T20:59:38.870Z,13.26
2022-11-03T21:02:13.013Z,13.24
2022-11-03T21:04:40.343Z,13.25
2022-11-03T21:07:06.736Z,13.24
2022-11-03T21:09:33.114Z,13.20
2022-11-03T21:11:59.469Z,13.26
2022-11-03T21:14:27.134Z,13.27
2022-11-03T21:17:12.159Z,13.30
2022-11-03T21:19:57.386Z,13.30
2022-11-03T21:25:21.658Z,13.28
2022-11-03T21:27:49.534Z,13.29
2022-11-03T21:30:16.707Z,13.26
2022-11-03T21:32:43.314Z,13.27
2022-11-03T21:35:13.485Z,13.21
2022-11-03T21:37:39.761Z,13.19
2022-11-03T21:40:06.548Z,13.18
2022-11-03T21:42:51.603Z,13.20
2022-11-03T21:45:19.973Z,13.19
2022-11-03T21:48:14.335Z,13.18
2022-11-03T21:50:41.523Z,13.16
2022-11-03T21:53:08.385Z,13.17
2022-11-03T21:55:35.469Z,13.18
2022-11-03T21:58:02.463Z,13.12
2022-11-03T22:00:28.975Z,13.12
2022-11-03T22:02:55.367Z,13.09
2022-11-03T22:05:21.809Z,13.07
2022-11-03T22:07:48.123Z,13.09
2022-11-03T22:10:14.530Z,13.09
2022-11-03T22:12:40.834Z,13.11
2022-11-03T22:15:26.023Z,13.10
2022-11-03T22:17:52.600Z,13.08
2022-11-03T22:20:37.743Z,13.05
2022-11-03T22:23:22.738Z,13.07
2022-11-03T22:26:07.506Z,13.12
2022-11-03T22:28:33.875Z,13.12
2022-11-03T22:31:22.250Z,13.09
2022-11-03T22:34:07.644Z,13.13
2022-11-03T22:36:33.930Z,13.08
2022-11-03T22:39:19.102Z,13.04
2022-11-03T22:42:06.534Z,12.95
2022-11-03T22:44:51.967Z,12.62
2022-11-03T22:47:18.998Z,12.84
2022-11-03T22:49:45.552Z,12.79
2022-11-03T22:52:11.993Z,12.77
2022-11-03T22:54:38.378Z,12.72
2022-11-03T22:57:04.824Z,12.72
2022-11-03T22:59:31.258Z,12.73
2022-11-03T23:01:57.713Z,12.71
2022-11-03T23:04:24.314Z,12.72
2022-11-03T23:06:50.686Z,12.71
2022-11-03T23:09:17.523Z,12.68
2022-11-03T23:11:43.889Z,12.66
2022-11-03T23:14:10.860Z,12.60
2022-11-03T23:16:38.703Z,12.65
2022-11-03T23:19:24.122Z,12.65
2022-11-03T23:21:51.715Z,12.67
2022-11-03T23:24:42.176Z,12.66
2022-11-03T23:27:12.272Z,12.66
2022-11-03T23:29:38.795Z,12.58
2022-11-03T23:32:05.263Z,12.58
2022-11-03T23:34:35.016Z,12.54
2022-11-03T23:37:02.082Z,12.52
2022-11-03T23:39:28.430Z,12.51
2022-11-03T23:41:54.780Z,12.52
2022-11-03T23:44:21.090Z,12.51
2022-11-03T23:47:06.199Z,12.50
2022-11-03T23:49:32.534Z,12.50
2022-11-03T23:51:59.059Z,12.49
2022-11-03T23:54:27.248Z,12.47
2022-11-03T23:57:12.446Z,12.45
2022-11-03T23:59:38.810Z,12.47
